sensor_id;sensor_type;location;lat;lon;timestamp;temperature;humidity
60723;DHT22;46574;52.818;6.516;2023-11-21T00:02:20;9.50;99.90
60723;DHT22;46574;52.818;6.516;2023-11-21T00:04:46;9.50;99.90
60723;DHT22;46574;52.818;6.516;2023-11-21T00:07:12;9.50;99.90
60723;DHT22;46574;52.818;6.516;2023-11-21T00:09:38;9.60;99.90
60723;DHT22;46574;52.818;6.516;2023-11-21T00:12:04;9.50;99.90
60723;DHT22;46574;52.818;6.516;2023-11-21T00:14:30;9.60;99.90
60723;DHT22;46574;52.818;6.516;2023-11-21T00:16:55;9.60;99.90
60723;DHT22;46574;52.818;6.516;2023-11-21T00:19:21;9.60;99.90
60723;DHT22;46574;52.818;6.516;2023-11-21T00:21:46;9.60;99.90
60723;DHT22;46574;52.818;6.516;2023-11-21T00:24:12;9.60;99.90
60723;DHT22;46574;52.818;6.516;2023-11-21T00:26:42;9.60;99.90
60723;DHT22;46574;52.818;6.516;2023-11-21T00:29:07;9.60;99.90
60723;DHT22;46574;52.818;6.516;2023-11-21T00:31:34;9.60;99.90
60723;DHT22;46574;52.818;6.516;2023-11-21T00:34:02;9.60;99.90
60723;DHT22;46574;52.818;6.516;2023-11-21T00:36:31;9.60;99.90
60723;DHT22;46574;52.818;6.516;2023-11-21T00:38:57;9.60;99.90
60723;DHT22;46574;52.818;6.516;2023-11-21T00:41:23;9.60;99.90
60723;DHT22;46574;52.818;6.516;2023-11-21T00:43:49;9.60;99.90
60723;DHT22;46574;52.818;6.516;2023-11-21T00:46:14;9.60;99.90
60723;DHT22;46574;52.818;6.516;2023-11-21T00:48:40;9.60;99.90
60723;DHT22;46574;52.818;6.516;2023-11-21T00:51:06;9.60;99.90
60723;DHT22;46574;52.818;6.516;2023-11-21T00:53:32;9.70;99.90
60723;DHT22;46574;52.818;6.516;2023-11-21T00:55:57;9.60;99.90
60723;DHT22;46574;52.818;6.516;2023-11-21T00:58:26;9.60;99.90
60723;DHT22;46574;52.818;6.516;2023-11-21T01:00:52;9.70;99.90
60723;DHT22;46574;52.818;6.516;2023-11-21T01:03:18;9.60;99.90
60723;DHT22;46574;52.818;6.516;2023-11-21T01:05:44;9.60;99.90
60723;DHT22;46574;52.818;6.516;2023-11-21T01:08:11;9.60;99.90
60723;DHT22;46574;52.818;6.516;2023-11-21T01:10:36;9.60;99.90
60723;DHT22;46574;52.818;6.516;2023-11-21T01:13:03;9.60;99.90
60723;DHT22;46574;52.818;6.516;2023-11-21T01:15:30;9.60;99.90
60723;DHT22;46574;52.818;6.516;2023-11-21T01:17:56;9.60;99.90
60723;DHT22;46574;52.818;6.516;2023-11-21T01:20:21;9.70;99.90
60723;DHT22;46574;52.818;6.516;2023-11-21T01:22:47;9.70;99.90
60723;DHT22;46574;52.818;6.516;2023-11-21T01:25:14;9.70;99.90
60723;DHT22;46574;52.818;6.516;2023-11-21T01:27:42;9.70;99.90
60723;DHT22;46574;52.818;6.516;2023-11-21T01:30:08;9.70;99.90
60723;DHT22;46574;52.818;6.516;2023-11-21T01:32:37;9.70;99.90
60723;DHT22;46574;52.818;6.516;2023-11-21T01:35:03;9.70;99.90
60723;DHT22;46574;52.818;6.516;2023-11-21T01:37:31;9.70;99.90
60723;DHT22;46574;52.818;6.516;2023-11-21T01:39:56;9.70;99.90
60723;DHT22;46574;52.818;6.516;2023-11-21T01:42:22;9.70;99.90
60723;DHT22;46574;52.818;6.516;2023-11-21T01:44:48;9.70;99.90
60723;DHT22;46574;52.818;6.516;2023-11-21T01:47:14;9.70;99.90
60723;DHT22;46574;52.818;6.516;2023-11-21T01:49:44;9.70;99.90
60723;DHT22;46574;52.818;6.516;2023-11-21T01:52:11;9.80;99.90
60723;DHT22;46574;52.818;6.516;2023-11-21T01:54:37;9.70;99.90
60723;DHT22;46574;52.818;6.516;2023-11-21T01:57:04;9.80;99.90
60723;DHT22;46574;52.818;6.516;2023-11-21T01:59:36;9.70;99.90
60723;DHT22;46574;52.818;6.516;2023-11-21T02:02:06;9.70;99.90
60723;DHT22;46574;52.818;6.516;2023-11-21T02:04:33;9.80;99.90
60723;DHT22;46574;52.818;6.516;2023-11-21T02:06:59;9.70;99.90
60723;DHT22;46574;52.818;6.516;2023-11-21T02:09:28;9.80;99.90
60723;DHT22;46574;52.818;6.516;2023-11-21T02:11:55;9.80;99.90
60723;DHT22;46574;52.818;6.516;2023-11-21T02:14:21;9.80;99.90
60723;DHT22;46574;52.818;6.516;2023-11-21T02:16:50;9.70;99.90
60723;DHT22;46574;52.818;6.516;2023-11-21T02:19:19;9.70;99.90
60723;DHT22;46574;52.818;6.516;2023-11-21T02:21:54;9.70;99.90
60723;DHT22;46574;52.818;6.516;2023-11-21T02:24:21;9.80;99.90
60723;DHT22;46574;52.818;6.516;2023-11-21T02:26:50;9.70;99.90
60723;DHT22;46574;52.818;6.516;2023-11-21T02:29:20;9.70;99.90
60723;DHT22;46574;52.818;6.516;2023-11-21T02:31:49;9.70;99.90
60723;DHT22;46574;52.818;6.516;2023-11-21T02:34:17;9.80;99.90
60723;DHT22;46574;52.818;6.516;2023-11-21T02:36:46;9.80;99.90
60723;DHT22;46574;52.818;6.516;2023-11-21T02:39:16;9.80;99.90
60723;DHT22;46574;52.818;6.516;2023-11-21T02:41:48;9.80;99.90
60723;DHT22;46574;52.818;6.516;2023-11-21T02:44:13;9.80;99.90
60723;DHT22;46574;52.818;6.516;2023-11-21T02:46:39;9.80;99.90
60723;DHT22;46574;52.818;6.516;2023-11-21T02:49:05;9.80;99.90
60723;DHT22;46574;52.818;6.516;2023-11-21T02:51:36;9.80;99.90
60723;DHT22;46574;52.818;6.516;2023-11-21T02:54:03;9.80;99.90
60723;DHT22;46574;52.818;6.516;2023-11-21T02:56:32;9.80;99.90
60723;DHT22;46574;52.818;6.516;2023-11-21T02:58:59;9.80;99.90
60723;DHT22;46574;52.818;6.516;2023-11-21T03:01:26;9.80;99.90
60723;DHT22;46574;52.818;6.516;2023-11-21T03:03:52;9.80;99.90
60723;DHT22;46574;52.818;6.516;2023-11-21T03:06:21;9.80;99.90
60723;DHT22;46574;52.818;6.516;2023-11-21T03:08:47;9.80;99.90
60723;DHT22;46574;52.818;6.516;2023-11-21T03:11:13;9.80;99.90
60723;DHT22;46574;52.818;6.516;2023-11-21T03:13:40;9.80;99.90
60723;DHT22;46574;52.818;6.516;2023-11-21T03:16:08;9.80;99.90
60723;DHT22;46574;52.818;6.516;2023-11-21T03:18:34;9.80;99.90
60723;DHT22;46574;52.818;6.516;2023-11-21T03:21:00;9.80;99.90
60723;DHT22;46574;52.818;6.516;2023-11-21T03:23:25;9.80;99.90
60723;DHT22;46574;52.818;6.516;2023-11-21T03:25:51;9.80;99.90
60723;DHT22;46574;52.818;6.516;2023-11-21T03:28:17;9.80;99.90
60723;DHT22;46574;52.818;6.516;2023-11-21T03:30:43;9.80;99.90
60723;DHT22;46574;52.818;6.516;2023-11-21T03:33:09;9.80;99.90
60723;DHT22;46574;52.818;6.516;2023-11-21T03:35:34;9.80;99.90
60723;DHT22;46574;52.818;6.516;2023-11-21T03:38:00;9.80;99.90
60723;DHT22;46574;52.818;6.516;2023-11-21T03:40:26;9.80;99.90
60723;DHT22;46574;52.818;6.516;2023-11-21T03:42:52;9.80;99.90
60723;DHT22;46574;52.818;6.516;2023-11-21T03:45:17;9.80;99.90
60723;DHT22;46574;52.818;6.516;2023-11-21T03:47:44;9.80;99.90
60723;DHT22;46574;52.818;6.516;2023-11-21T03:50:09;9.80;99.90
60723;DHT22;46574;52.818;6.516;2023-11-21T03:52:37;9.90;99.90
60723;DHT22;46574;52.818;6.516;2023-11-21T03:55:03;9.90;99.90
60723;DHT22;46574;52.818;6.516;2023-11-21T03:57:28;9.90;99.90
60723;DHT22;46574;52.818;6.516;2023-11-21T03:59:54;9.80;99.90
60723;DHT22;46574;52.818;6.516;2023-11-21T04:02:19;9.90;99.90
60723;DHT22;46574;52.818;6.516;2023-11-21T04:04:45;9.90;99.90
60723;DHT22;46574;52.818;6.516;2023-11-21T04:07:11;9.80;99.90
60723;DHT22;46574;52.818;6.516;2023-11-21T04:09:39;9.90;99.90
60723;DHT22;46574;52.818;6.516;2023-11-21T04:12:05;9.90;99.90
60723;DHT22;46574;52.818;6.516;2023-11-21T04:14:31;9.90;99.90
60723;DHT22;46574;52.818;6.516;2023-11-21T04:16:57;9.90;99.90
60723;DHT22;46574;52.818;6.516;2023-11-21T04:19:22;9.90;99.90
60723;DHT22;46574;52.818;6.516;2023-11-21T04:21:48;9.90;99.90
60723;DHT22;46574;52.818;6.516;2023-11-21T04:24:14;9.90;99.90
60723;DHT22;46574;52.818;6.516;2023-11-21T04:26:40;9.90;99.90
60723;DHT22;46574;52.818;6.516;2023-11-21T04:29:05;9.90;99.90
60723;DHT22;46574;52.818;6.516;2023-11-21T04:31:31;9.90;99.90
60723;DHT22;46574;52.818;6.516;2023-11-21T04:33:57;9.90;99.90
60723;DHT22;46574;52.818;6.516;2023-11-21T04:36:23;9.90;99.90
60723;DHT22;46574;52.818;6.516;2023-11-21T04:38:48;9.90;99.90
60723;DHT22;46574;52.818;6.516;2023-11-21T04:41:14;9.90;99.90
60723;DHT22;46574;52.818;6.516;2023-11-21T04:43:40;9.90;99.90
60723;DHT22;46574;52.818;6.516;2023-11-21T04:46:05;10.00;99.90
60723;DHT22;46574;52.818;6.516;2023-11-21T04:48:32;10.00;99.90
60723;DHT22;46574;52.818;6.516;2023-11-21T04:50:58;9.90;99.90
60723;DHT22;46574;52.818;6.516;2023-11-21T04:53:24;10.00;99.90
60723;DHT22;46574;52.818;6.516;2023-11-21T04:55:49;10.00;99.90
60723;DHT22;46574;52.818;6.516;2023-11-21T04:58:15;9.90;99.90
60723;DHT22;46574;52.818;6.516;2023-11-21T05:00:41;9.90;99.90
60723;DHT22;46574;52.818;6.516;2023-11-21T05:03:07;9.90;99.90
60723;DHT22;46574;52.818;6.516;2023-11-21T05:05:33;9.90;99.90
60723;DHT22;46574;52.818;6.516;2023-11-21T05:08:01;9.90;99.90
60723;DHT22;46574;52.818;6.516;2023-11-21T05:10:27;9.80;99.90
60723;DHT22;46574;52.818;6.516;2023-11-21T05:12:54;9.90;99.90
60723;DHT22;46574;52.818;6.516;2023-11-21T05:15:21;9.90;99.90
60723;DHT22;46574;52.818;6.516;2023-11-21T05:17:47;9.80;99.90
60723;DHT22;46574;52.818;6.516;2023-11-21T05:20:17;9.80;99.90
60723;DHT22;46574;52.818;6.516;2023-11-21T05:22:48;9.90;99.90
60723;DHT22;46574;52.818;6.516;2023-11-21T05:25:14;9.80;99.90
60723;DHT22;46574;52.818;6.516;2023-11-21T05:27:40;9.80;99.90
60723;DHT22;46574;52.818;6.516;2023-11-21T05:30:06;9.90;99.90
60723;DHT22;46574;52.818;6.516;2023-11-21T05:32:33;9.80;99.90
60723;DHT22;46574;52.818;6.516;2023-11-21T05:34:59;9.80;99.90
60723;DHT22;46574;52.818;6.516;2023-11-21T05:37:25;9.80;99.90
60723;DHT22;46574;52.818;6.516;2023-11-21T05:39:53;9.80;99.90
60723;DHT22;46574;52.818;6.516;2023-11-21T05:42:18;9.80;99.90
60723;DHT22;46574;52.818;6.516;2023-11-21T05:44:44;9.80;99.90
60723;DHT22;46574;52.818;6.516;2023-11-21T05:47:11;9.80;99.90
60723;DHT22;46574;52.818;6.516;2023-11-21T05:49:39;9.80;99.90
60723;DHT22;46574;52.818;6.516;2023-11-21T05:52:05;9.80;99.90
60723;DHT22;46574;52.818;6.516;2023-11-21T05:54:32;9.80;99.90
60723;DHT22;46574;52.818;6.516;2023-11-21T05:56:57;9.80;99.90
60723;DHT22;46574;52.818;6.516;2023-11-21T05:59:23;9.90;99.90
60723;DHT22;46574;52.818;6.516;2023-11-21T06:01:49;9.90;99.90
60723;DHT22;46574;52.818;6.516;2023-11-21T06:04:15;9.80;99.90
60723;DHT22;46574;52.818;6.516;2023-11-21T06:06:40;9.80;99.90
60723;DHT22;46574;52.818;6.516;2023-11-21T06:09:06;9.90;99.90
60723;DHT22;46574;52.818;6.516;2023-11-21T06:11:34;9.90;99.90
60723;DHT22;46574;52.818;6.516;2023-11-21T06:14:00;9.90;99.90
60723;DHT22;46574;52.818;6.516;2023-11-21T06:16:26;9.90;99.90
60723;DHT22;46574;52.818;6.516;2023-11-21T06:18:53;9.80;99.90
60723;DHT22;46574;52.818;6.516;2023-11-21T06:21:19;9.90;99.90
60723;DHT22;46574;52.818;6.516;2023-11-21T06:23:44;9.90;99.90
60723;DHT22;46574;52.818;6.516;2023-11-21T06:26:10;9.90;99.90
60723;DHT22;46574;52.818;6.516;2023-11-21T06:28:36;9.80;99.90
60723;DHT22;46574;52.818;6.516;2023-11-21T06:31:02;9.80;99.90
60723;DHT22;46574;52.818;6.516;2023-11-21T06:33:34;9.80;99.90
60723;DHT22;46574;52.818;6.516;2023-11-21T06:36:00;9.80;99.90
60723;DHT22;46574;52.818;6.516;2023-11-21T06:38:28;9.80;99.90
60723;DHT22;46574;52.818;6.516;2023-11-21T06:40:58;9.80;99.90
60723;DHT22;46574;52.818;6.516;2023-11-21T06:43:27;9.80;99.90
60723;DHT22;46574;52.818;6.516;2023-11-21T06:45:53;9.80;99.90
60723;DHT22;46574;52.818;6.516;2023-11-21T06:48:19;9.80;99.90
60723;DHT22;46574;52.818;6.516;2023-11-21T06:50:45;9.70;99.90
60723;DHT22;46574;52.818;6.516;2023-11-21T06:53:12;9.80;99.90
60723;DHT22;46574;52.818;6.516;2023-11-21T06:55:39;9.70;99.90
60723;DHT22;46574;52.818;6.516;2023-11-21T06:58:04;9.70;99.90
60723;DHT22;46574;52.818;6.516;2023-11-21T07:00:31;9.70;99.90
60723;DHT22;46574;52.818;6.516;2023-11-21T07:02:56;9.80;99.90
60723;DHT22;46574;52.818;6.516;2023-11-21T07:05:22;9.70;99.90
60723;DHT22;46574;52.818;6.516;2023-11-21T07:07:49;9.70;99.90
60723;DHT22;46574;52.818;6.516;2023-11-21T07:10:15;9.70;99.90
60723;DHT22;46574;52.818;6.516;2023-11-21T07:12:40;9.70;99.90
60723;DHT22;46574;52.818;6.516;2023-11-21T07:15:07;9.70;99.90
60723;DHT22;46574;52.818;6.516;2023-11-21T07:17:37;9.70;99.90
60723;DHT22;46574;52.818;6.516;2023-11-21T07:20:03;9.70;99.90
60723;DHT22;46574;52.818;6.516;2023-11-21T07:22:29;9.70;99.90
60723;DHT22;46574;52.818;6.516;2023-11-21T07:24:55;9.70;99.90
60723;DHT22;46574;52.818;6.516;2023-11-21T07:27:24;9.70;99.90
60723;DHT22;46574;52.818;6.516;2023-11-21T07:29:49;9.70;99.90
60723;DHT22;46574;52.818;6.516;2023-11-21T07:32:15;9.80;99.90
60723;DHT22;46574;52.818;6.516;2023-11-21T07:34:41;9.70;99.90
60723;DHT22;46574;52.818;6.516;2023-11-21T07:37:07;9.80;99.90
60723;DHT22;46574;52.818;6.516;2023-11-21T07:39:35;9.80;99.90
60723;DHT22;46574;52.818;6.516;2023-11-21T07:42:01;9.80;99.90
60723;DHT22;46574;52.818;6.516;2023-11-21T07:44:28;9.80;99.90
60723;DHT22;46574;52.818;6.516;2023-11-21T07:46:54;9.90;99.90
60723;DHT22;46574;52.818;6.516;2023-11-21T07:49:23;9.80;99.90
60723;DHT22;46574;52.818;6.516;2023-11-21T07:51:49;9.80;99.90
60723;DHT22;46574;52.818;6.516;2023-11-21T07:54:16;9.80;99.90
60723;DHT22;46574;52.818;6.516;2023-11-21T07:56:42;9.80;99.90
60723;DHT22;46574;52.818;6.516;2023-11-21T07:59:08;9.80;99.90
60723;DHT22;46574;52.818;6.516;2023-11-21T08:01:33;9.80;99.90
60723;DHT22;46574;52.818;6.516;2023-11-21T08:03:59;9.80;99.90
60723;DHT22;46574;52.818;6.516;2023-11-21T08:06:32;9.80;99.90
60723;DHT22;46574;52.818;6.516;2023-11-21T08:08:58;9.80;99.90
60723;DHT22;46574;52.818;6.516;2023-11-21T08:11:24;9.80;99.90
60723;DHT22;46574;52.818;6.516;2023-11-21T08:13:50;9.80;99.90
60723;DHT22;46574;52.818;6.516;2023-11-21T08:16:15;9.90;99.90
60723;DHT22;46574;52.818;6.516;2023-11-21T08:18:42;9.90;99.90
60723;DHT22;46574;52.818;6.516;2023-11-21T08:21:08;9.90;99.90
60723;DHT22;46574;52.818;6.516;2023-11-21T08:23:34;10.00;99.90
60723;DHT22;46574;52.818;6.516;2023-11-21T08:26:00;10.00;99.90
60723;DHT22;46574;52.818;6.516;2023-11-21T08:28:25;10.00;99.90
60723;DHT22;46574;52.818;6.516;2023-11-21T08:30:52;10.00;99.90
60723;DHT22;46574;52.818;6.516;2023-11-21T08:33:18;10.10;99.90
60723;DHT22;46574;52.818;6.516;2023-11-21T08:35:44;10.10;99.90
60723;DHT22;46574;52.818;6.516;2023-11-21T08:38:11;10.10;99.90
60723;DHT22;46574;52.818;6.516;2023-11-21T08:40:37;10.10;99.90
60723;DHT22;46574;52.818;6.516;2023-11-21T08:43:03;10.10;99.90
60723;DHT22;46574;52.818;6.516;2023-11-21T08:45:30;10.10;99.90
60723;DHT22;46574;52.818;6.516;2023-11-21T08:47:56;10.10;99.90
60723;DHT22;46574;52.818;6.516;2023-11-21T08:50:22;10.10;99.90
60723;DHT22;46574;52.818;6.516;2023-11-21T08:52:48;10.10;99.90
60723;DHT22;46574;52.818;6.516;2023-11-21T08:55:14;10.00;99.90
60723;DHT22;46574;52.818;6.516;2023-11-21T08:57:41;10.10;99.90
60723;DHT22;46574;52.818;6.516;2023-11-21T09:00:10;10.10;99.90
60723;DHT22;46574;52.818;6.516;2023-11-21T09:02:38;10.10;99.90
60723;DHT22;46574;52.818;6.516;2023-11-21T09:05:10;10.00;99.90
60723;DHT22;46574;52.818;6.516;2023-11-21T09:07:36;10.00;99.90
60723;DHT22;46574;52.818;6.516;2023-11-21T09:10:06;10.00;99.90
60723;DHT22;46574;52.818;6.516;2023-11-21T09:12:34;9.90;99.90
60723;DHT22;46574;52.818;6.516;2023-11-21T09:15:04;9.80;99.90
60723;DHT22;46574;52.818;6.516;2023-11-21T09:17:31;9.80;99.90
60723;DHT22;46574;52.818;6.516;2023-11-21T09:19:57;9.80;99.90
60723;DHT22;46574;52.818;6.516;2023-11-21T09:22:23;9.80;99.90
60723;DHT22;46574;52.818;6.516;2023-11-21T09:24:50;9.70;99.90
60723;DHT22;46574;52.818;6.516;2023-11-21T09:27:16;9.70;99.90
60723;DHT22;46574;52.818;6.516;2023-11-21T09:29:43;9.70;99.90
60723;DHT22;46574;52.818;6.516;2023-11-21T09:32:08;9.70;99.90
60723;DHT22;46574;52.818;6.516;2023-11-21T09:34:38;9.70;99.90
60723;DHT22;46574;52.818;6.516;2023-11-21T09:37:07;9.50;99.90
60723;DHT22;46574;52.818;6.516;2023-11-21T09:39:33;9.50;99.90
60723;DHT22;46574;52.818;6.516;2023-11-21T09:42:12;9.40;99.90
60723;DHT22;46574;52.818;6.516;2023-11-21T09:47:27;9.50;99.90
60723;DHT22;46574;52.818;6.516;2023-11-21T09:49:54;9.40;99.90
60723;DHT22;46574;52.818;6.516;2023-11-21T09:52:25;9.30;99.90
60723;DHT22;46574;52.818;6.516;2023-11-21T09:54:51;9.40;99.90
60723;DHT22;46574;52.818;6.516;2023-11-21T09:57:19;9.30;99.90
60723;DHT22;46574;52.818;6.516;2023-11-21T09:59:47;9.30;99.90
60723;DHT22;46574;52.818;6.516;2023-11-21T10:02:16;9.30;99.90
60723;DHT22;46574;52.818;6.516;2023-11-21T10:04:45;9.30;99.90
60723;DHT22;46574;52.818;6.516;2023-11-21T10:07:13;9.30;99.90
60723;DHT22;46574;52.818;6.516;2023-11-21T10:09:41;9.30;99.90
60723;DHT22;46574;52.818;6.516;2023-11-21T10:12:08;9.30;99.90
60723;DHT22;46574;52.818;6.516;2023-11-21T10:14:37;9.30;99.90
60723;DHT22;46574;52.818;6.516;2023-11-21T10:17:05;9.40;99.90
60723;DHT22;46574;52.818;6.516;2023-11-21T10:19:35;9.40;99.90
60723;DHT22;46574;52.818;6.516;2023-11-21T10:22:02;9.40;99.90
60723;DHT22;46574;52.818;6.516;2023-11-21T10:24:29;9.40;99.90
60723;DHT22;46574;52.818;6.516;2023-11-21T10:26:54;9.40;99.90
60723;DHT22;46574;52.818;6.516;2023-11-21T10:29:20;9.40;99.90
60723;DHT22;46574;52.818;6.516;2023-11-21T10:31:49;9.40;99.90
60723;DHT22;46574;52.818;6.516;2023-11-21T10:34:19;9.40;99.90
60723;DHT22;46574;52.818;6.516;2023-11-21T10:36:45;9.40;99.90
60723;DHT22;46574;52.818;6.516;2023-11-21T10:39:18;9.30;99.90
60723;DHT22;46574;52.818;6.516;2023-11-21T10:41:45;9.30;99.90
60723;DHT22;46574;52.818;6.516;2023-11-21T10:44:17;9.40;99.90
60723;DHT22;46574;52.818;6.516;2023-11-21T10:46:48;9.30;99.90
60723;DHT22;46574;52.818;6.516;2023-11-21T10:49:17;9.40;99.90
60723;DHT22;46574;52.818;6.516;2023-11-21T10:51:44;9.40;99.90
60723;DHT22;46574;52.818;6.516;2023-11-21T10:54:10;9.30;99.90
60723;DHT22;46574;52.818;6.516;2023-11-21T10:56:36;9.30;99.90
60723;DHT22;46574;52.818;6.516;2023-11-21T10:59:09;9.30;99.90
60723;DHT22;46574;52.818;6.516;2023-11-21T11:01:36;9.30;99.90
60723;DHT22;46574;52.818;6.516;2023-11-21T11:04:05;9.30;99.90
60723;DHT22;46574;52.818;6.516;2023-11-21T11:06:32;9.30;99.90
60723;DHT22;46574;52.818;6.516;2023-11-21T11:08:59;9.30;99.90
60723;DHT22;46574;52.818;6.516;2023-11-21T11:11:29;9.30;99.90
60723;DHT22;46574;52.818;6.516;2023-11-21T11:13:55;9.30;99.90
60723;DHT22;46574;52.818;6.516;2023-11-21T11:16:22;9.30;99.90
60723;DHT22;46574;52.818;6.516;2023-11-21T11:18:50;9.30;99.90
60723;DHT22;46574;52.818;6.516;2023-11-21T11:24:08;9.10;99.90
60723;DHT22;46574;52.818;6.516;2023-11-21T11:26:47;9.00;99.90
60723;DHT22;46574;52.818;6.516;2023-11-21T11:29:39;9.10;99.90
60723;DHT22;46574;52.818;6.516;2023-11-21T11:32:21;9.10;99.90
60723;DHT22;46574;52.818;6.516;2023-11-21T11:34:56;9.10;99.90
60723;DHT22;46574;52.818;6.516;2023-11-21T11:37:25;9.20;99.90
60723;DHT22;46574;52.818;6.516;2023-11-21T11:39:51;9.40;99.90
60723;DHT22;46574;52.818;6.516;2023-11-21T11:42:17;9.50;99.90
60723;DHT22;46574;52.818;6.516;2023-11-21T11:52:40;9.60;99.90
60723;DHT22;46574;52.818;6.516;2023-11-21T11:55:07;9.60;99.90
60723;DHT22;46574;52.818;6.516;2023-11-21T11:57:35;9.50;99.90
60723;DHT22;46574;52.818;6.516;2023-11-21T12:00:18;9.30;99.90
60723;DHT22;46574;52.818;6.516;2023-11-21T12:02:55;9.30;99.90
60723;DHT22;46574;52.818;6.516;2023-11-21T12:05:22;9.20;99.90
60723;DHT22;46574;52.818;6.516;2023-11-21T12:07:55;9.10;99.90
60723;DHT22;46574;52.818;6.516;2023-11-21T12:10:28;9.20;99.90
60723;DHT22;46574;52.818;6.516;2023-11-21T12:12:57;9.10;99.90
60723;DHT22;46574;52.818;6.516;2023-11-21T12:15:24;9.20;99.90
60723;DHT22;46574;52.818;6.516;2023-11-21T12:17:56;9.20;99.90
60723;DHT22;46574;52.818;6.516;2023-11-21T12:20:23;9.20;99.90
60723;DHT22;46574;52.818;6.516;2023-11-21T12:22:50;9.30;99.90
60723;DHT22;46574;52.818;6.516;2023-11-21T12:25:18;9.30;99.90
60723;DHT22;46574;52.818;6.516;2023-11-21T12:27:48;9.30;99.90
60723;DHT22;46574;52.818;6.516;2023-11-21T12:30:18;9.30;99.90
60723;DHT22;46574;52.818;6.516;2023-11-21T12:32:47;9.30;99.90
60723;DHT22;46574;52.818;6.516;2023-11-21T12:35:13;9.30;99.90
60723;DHT22;46574;52.818;6.516;2023-11-21T12:37:39;9.30;99.90
60723;DHT22;46574;52.818;6.516;2023-11-21T12:40:07;9.30;99.90
60723;DHT22;46574;52.818;6.516;2023-11-21T12:42:39;9.40;99.90
60723;DHT22;46574;52.818;6.516;2023-11-21T12:45:18;9.40;99.90
60723;DHT22;46574;52.818;6.516;2023-11-21T12:48:04;9.40;99.90
60723;DHT22;46574;52.818;6.516;2023-11-21T12:50:34;9.30;99.90
60723;DHT22;46574;52.818;6.516;2023-11-21T12:53:04;9.40;99.90
60723;DHT22;46574;52.818;6.516;2023-11-21T12:55:31;9.30;99.90
60723;DHT22;46574;52.818;6.516;2023-11-21T12:57:58;9.30;99.90
60723;DHT22;46574;52.818;6.516;2023-11-21T13:00:33;9.30;99.90
60723;DHT22;46574;52.818;6.516;2023-11-21T13:03:03;9.30;99.90
60723;DHT22;46574;52.818;6.516;2023-11-21T13:05:37;9.20;99.90
60723;DHT22;46574;52.818;6.516;2023-11-21T13:08:16;9.30;99.90
60723;DHT22;46574;52.818;6.516;2023-11-21T13:10:45;9.30;99.90
60723;DHT22;46574;52.818;6.516;2023-11-21T13:13:13;9.30;99.90
60723;DHT22;46574;52.818;6.516;2023-11-21T13:15:50;9.40;99.90
60723;DHT22;46574;52.818;6.516;2023-11-21T13:18:16;9.50;99.90
60723;DHT22;46574;52.818;6.516;2023-11-21T13:20:42;9.50;99.90
60723;DHT22;46574;52.818;6.516;2023-11-21T13:23:12;9.50;99.90
60723;DHT22;46574;52.818;6.516;2023-11-21T13:25:38;9.60;99.90
60723;DHT22;46574;52.818;6.516;2023-11-21T13:28:06;9.60;99.90
60723;DHT22;46574;52.818;6.516;2023-11-21T13:30:32;9.50;99.90
60723;DHT22;46574;52.818;6.516;2023-11-21T13:33:05;9.50;99.90
60723;DHT22;46574;52.818;6.516;2023-11-21T13:35:33;9.50;99.90
60723;DHT22;46574;52.818;6.516;2023-11-21T13:38:09;9.50;99.90
60723;DHT22;46574;52.818;6.516;2023-11-21T13:40:36;9.50;99.90
60723;DHT22;46574;52.818;6.516;2023-11-21T13:43:18;9.20;99.90
60723;DHT22;46574;52.818;6.516;2023-11-21T13:45:47;9.20;99.90
60723;DHT22;46574;52.818;6.516;2023-11-21T13:48:13;9.20;99.90
60723;DHT22;46574;52.818;6.516;2023-11-21T13:50:43;9.10;99.90
60723;DHT22;46574;52.818;6.516;2023-11-21T13:53:14;9.10;99.90
60723;DHT22;46574;52.818;6.516;2023-11-21T13:55:53;9.10;99.90
60723;DHT22;46574;52.818;6.516;2023-11-21T13:58:25;9.00;99.90
60723;DHT22;46574;52.818;6.516;2023-11-21T14:01:07;9.00;99.90
60723;DHT22;46574;52.818;6.516;2023-11-21T14:03:42;8.90;99.90
60723;DHT22;46574;52.818;6.516;2023-11-21T14:06:17;8.80;99.90
60723;DHT22;46574;52.818;6.516;2023-11-21T14:08:50;8.80;99.90
60723;DHT22;46574;52.818;6.516;2023-11-21T14:11:16;8.80;99.90
60723;DHT22;46574;52.818;6.516;2023-11-21T14:13:45;8.80;99.90
60723;DHT22;46574;52.818;6.516;2023-11-21T14:16:14;8.80;99.90
60723;DHT22;46574;52.818;6.516;2023-11-21T14:18:45;8.80;99.90
60723;DHT22;46574;52.818;6.516;2023-11-21T14:21:37;8.90;99.90
60723;DHT22;46574;52.818;6.516;2023-11-21T14:24:03;9.00;99.90
60723;DHT22;46574;52.818;6.516;2023-11-21T14:26:32;9.00;99.90
60723;DHT22;46574;52.818;6.516;2023-11-21T14:28:58;8.90;99.90
60723;DHT22;46574;52.818;6.516;2023-11-21T14:31:24;8.90;99.90
60723;DHT22;46574;52.818;6.516;2023-11-21T14:33:50;9.00;99.90
60723;DHT22;46574;52.818;6.516;2023-11-21T14:36:15;8.90;99.90
60723;DHT22;46574;52.818;6.516;2023-11-21T14:38:42;8.90;99.90
60723;DHT22;46574;52.818;6.516;2023-11-21T14:41:08;8.90;99.90
60723;DHT22;46574;52.818;6.516;2023-11-21T14:43:35;8.90;99.90
60723;DHT22;46574;52.818;6.516;2023-11-21T14:46:02;8.80;99.90
60723;DHT22;46574;52.818;6.516;2023-11-21T14:48:29;8.90;99.90
60723;DHT22;46574;52.818;6.516;2023-11-21T14:51:21;8.90;99.90
60723;DHT22;46574;52.818;6.516;2023-11-21T14:53:56;8.80;99.90
60723;DHT22;46574;52.818;6.516;2023-11-21T14:56:28;8.80;99.90
60723;DHT22;46574;52.818;6.516;2023-11-21T14:59:00;8.80;99.90
60723;DHT22;46574;52.818;6.516;2023-11-21T15:01:32;8.70;99.90
60723;DHT22;46574;52.818;6.516;2023-11-21T15:04:22;8.80;99.90
60723;DHT22;46574;52.818;6.516;2023-11-21T15:07:14;8.70;99.90
60723;DHT22;46574;52.818;6.516;2023-11-21T15:09:39;8.70;99.90
60723;DHT22;46574;52.818;6.516;2023-11-21T15:12:10;8.60;99.90
60723;DHT22;46574;52.818;6.516;2023-11-21T15:14:46;8.60;99.90
60723;DHT22;46574;52.818;6.516;2023-11-21T15:17:14;8.50;99.90
60723;DHT22;46574;52.818;6.516;2023-11-21T15:19:47;8.60;99.90
60723;DHT22;46574;52.818;6.516;2023-11-21T15:22:13;8.50;99.90
60723;DHT22;46574;52.818;6.516;2023-11-21T15:24:41;8.50;99.90
60723;DHT22;46574;52.818;6.516;2023-11-21T15:27:09;8.50;99.90
60723;DHT22;46574;52.818;6.516;2023-11-21T15:29:36;8.50;99.90
60723;DHT22;46574;52.818;6.516;2023-11-21T15:32:02;8.50;99.90
60723;DHT22;46574;52.818;6.516;2023-11-21T15:34:28;8.50;99.90
60723;DHT22;46574;52.818;6.516;2023-11-21T15:36:55;8.50;99.90
60723;DHT22;46574;52.818;6.516;2023-11-21T15:39:21;8.50;99.90
60723;DHT22;46574;52.818;6.516;2023-11-21T15:41:54;8.50;99.90
60723;DHT22;46574;52.818;6.516;2023-11-21T15:44:19;8.50;99.90
60723;DHT22;46574;52.818;6.516;2023-11-21T15:46:45;8.40;99.90
60723;DHT22;46574;52.818;6.516;2023-11-21T15:49:11;8.40;99.90
60723;DHT22;46574;52.818;6.516;2023-11-21T15:51:44;8.50;99.90
60723;DHT22;46574;52.818;6.516;2023-11-21T15:54:18;8.40;99.90
60723;DHT22;46574;52.818;6.516;2023-11-21T15:56:46;8.40;99.90
60723;DHT22;46574;52.818;6.516;2023-11-21T15:59:12;8.30;99.90
60723;DHT22;46574;52.818;6.516;2023-11-21T16:01:39;8.30;99.90
60723;DHT22;46574;52.818;6.516;2023-11-21T16:04:12;8.30;99.90